createdAt,value
2022-11-19T00:01:28.024Z,3.31
2022-11-19T00:03:56.020Z,3.22
2022-11-19T00:06:26.440Z,3.14
2022-11-19T00:08:55.170Z,3.21
2022-11-19T00:11:39.512Z,3.17
2022-11-19T00:14:07.920Z,3.28
2022-11-19T00:16:35.693Z,3.35
2022-11-19T00:19:03.241Z,3.35
2022-11-19T00:21:30.690Z,3.40
2022-11-19T00:23:58.722Z,3.21
2022-11-19T00:26:26.260Z,3.29
2022-11-19T00:28:53.929Z,3.21
2022-11-19T00:31:21.663Z,3.17
2022-11-19T00:33:50.683Z,3.10
2022-11-19T00:36:18.767Z,3.07
2022-11-19T00:38:46.276Z,3.08
2022-11-19T00:41:13.791Z,3.06
2022-11-19T00:43:50.633Z,3.02
2022-11-19T00:46:25.941Z,3.00
2022-11-19T00:48:56.132Z,2.99
2022-11-19T00:51:25.309Z,3.03
2022-11-19T00:53:52.980Z,2.86
2022-11-19T00:56:23.136Z,2.82
2022-11-19T00:58:51.576Z,2.80
2022-11-19T01:01:21.362Z,2.78
2022-11-19T01:03:48.930Z,2.84
2022-11-19T01:06:19.541Z,2.73
2022-11-19T01:08:48.393Z,2.80
2022-11-19T01:11:20.319Z,2.88
2022-11-19T01:13:48.391Z,2.77
2022-11-19T01:16:18.872Z,2.85
2022-11-19T01:18:48.316Z,2.68
2022-11-19T01:21:16.814Z,2.66
2022-11-19T01:23:45.296Z,2.73
2022-11-19T01:26:13.619Z,2.78
2022-11-19T01:28:41.718Z,2.78
2022-11-19T01:31:16.756Z,2.79
2022-11-19T01:33:44.385Z,2.76
2022-11-19T01:36:15.313Z,2.84
2022-11-19T01:38:43.160Z,2.76
2022-11-19T01:41:11.346Z,2.78
2022-11-19T01:43:59.074Z,2.78
2022-11-19T01:46:30.119Z,2.65
2022-11-19T01:49:15.340Z,2.60
2022-11-19T01:51:46.958Z,2.54
2022-11-19T01:54:25.537Z,2.53
2022-11-19T01:56:56.922Z,2.58
2022-11-19T01:59:26.346Z,2.53
2022-11-19T02:01:54.075Z,2.62
2022-11-19T02:04:22.461Z,2.50
2022-11-19T02:06:50.128Z,2.51
2022-11-19T02:09:18.082Z,2.56
2022-11-19T02:11:58.037Z,2.56
2022-11-19T02:15:03.116Z,2.44
2022-11-19T02:18:01.540Z,2.49
2022-11-19T02:20:58.696Z,2.54
2022-11-19T02:23:45.954Z,2.58
2022-11-19T02:26:22.757Z,2.53
2022-11-19T02:29:21.579Z,2.44
2022-11-19T02:32:07.616Z,2.35
2022-11-19T02:34:42.692Z,2.34
2022-11-19T02:37:16.352Z,2.28
2022-11-19T02:40:06.767Z,2.31
2022-11-19T02:42:43.502Z,2.29
2022-11-19T02:45:20.640Z,2.42
2022-11-19T02:47:53.615Z,2.42
2022-11-19T02:50:29.128Z,2.35
2022-11-19T02:52:57.501Z,2.28
2022-11-19T02:55:25.352Z,2.18
2022-11-19T02:58:01.932Z,2.22
2022-11-19T03:00:49.337Z,2.08
2022-11-19T03:03:38.676Z,2.05
2022-11-19T03:06:34.549Z,2.16
2022-11-19T03:09:02.803Z,2.18
2022-11-19T03:11:32.790Z,2.08
2022-11-19T03:14:39.795Z,2.01
2022-11-19T03:17:27.958Z,2.03
2022-11-19T03:20:04.120Z,2.10
2022-11-19T03:22:39.372Z,2.00
2022-11-19T03:25:13.313Z,1.92
2022-11-19T03:27:51.253Z,1.97
2022-11-19T03:30:20.383Z,1.95
2022-11-19T03:32:54.283Z,1.82
2022-11-19T03:35:28.256Z,1.83
2022-11-19T03:37:59.826Z,1.88
2022-11-19T03:40:29.309Z,1.88
2022-11-19T03:42:58.969Z,1.84
2022-11-19T03:45:30.712Z,1.76
2022-11-19T03:48:00.976Z,1.71
2022-11-19T03:50:59.309Z,1.82
2022-11-19T03:53:27.322Z,1.73
2022-11-19T03:56:02.759Z,1.74
2022-11-19T03:58:35.012Z,1.79
2022-11-19T04:01:02.487Z,1.98
2022-11-19T04:03:29.984Z,1.77
2022-11-19T04:05:57.475Z,1.76
2022-11-19T04:08:25.004Z,1.75
2022-11-19T04:10:52.519Z,1.60
2022-11-19T04:13:20.036Z,1.66
2022-11-19T04:15:47.452Z,1.67
2022-11-19T04:18:15.077Z,1.55
2022-11-19T04:20:44.845Z,1.78
2022-11-19T04:23:12.479Z,1.56
2022-11-19T04:25:41.311Z,1.71
2022-11-19T04:28:08.856Z,1.52
2022-11-19T04:30:36.433Z,1.68
2022-11-19T04:33:03.865Z,1.63
2022-11-19T04:35:31.340Z,1.49
2022-11-19T04:37:58.892Z,1.28
2022-11-19T04:40:26.419Z,1.29
2022-11-19T04:42:53.916Z,1.31
2022-11-19T04:45:21.422Z,1.30
2022-11-19T04:47:48.881Z,1.46
2022-11-19T04:50:16.502Z,1.16
2022-11-19T04:52:44.046Z,1.08
2022-11-19T04:55:11.836Z,1.02
2022-11-19T04:57:39.338Z,1.12
2022-11-19T05:00:08.234Z,0.96
2022-11-19T05:02:35.766Z,0.97
2022-11-19T05:05:03.373Z,1.05
2022-11-19T05:07:31.009Z,0.98
2022-11-19T05:09:58.617Z,0.99
2022-11-19T05:12:26.146Z,0.97
2022-11-19T05:14:53.635Z,1.02
2022-11-19T05:17:21.224Z,1.01
2022-11-19T05:19:48.703Z,1.09
2022-11-19T05:22:16.150Z,1.24
2022-11-19T05:24:43.608Z,1.11
2022-11-19T05:27:11.080Z,1.15
2022-11-19T05:29:38.600Z,1.18
2022-11-19T05:32:06.140Z,0.99
2022-11-19T05:34:33.625Z,0.97
2022-11-19T05:37:01.176Z,0.82
2022-11-19T05:39:29.036Z,0.95
2022-11-19T05:41:56.728Z,0.98
2022-11-19T05:44:24.335Z,0.94
2022-11-19T05:46:51.851Z,0.90
2022-11-19T05:49:19.588Z,0.92
2022-11-19T05:51:47.663Z,0.94
2022-11-19T05:54:15.508Z,1.02
2022-11-19T05:56:43.011Z,1.07
2022-11-19T05:59:10.467Z,0.94
2022-11-19T06:01:38.038Z,0.92
2022-11-19T06:04:05.680Z,0.88
2022-11-19T06:06:33.207Z,0.87
2022-11-19T06:09:00.670Z,0.77
2022-11-19T06:11:44.931Z,0.70
2022-11-19T06:14:12.451Z,0.74
2022-11-19T06:16:39.947Z,0.86
2022-11-19T06:19:07.689Z,0.56
2022-11-19T06:21:35.385Z,0.67
2022-11-19T06:24:02.875Z,0.71
2022-11-19T06:26:30.770Z,0.77
2022-11-19T06:28:58.320Z,0.75
2022-11-19T06:31:25.890Z,0.64
2022-11-19T06:33:54.119Z,0.58
2022-11-19T06:36:25.178Z,0.63
2022-11-19T06:38:54.903Z,0.64
2022-11-19T06:41:22.373Z,0.55
2022-11-19T06:43:49.867Z,0.56
2022-11-19T06:46:17.690Z,0.50
2022-11-19T06:48:45.237Z,0.64
2022-11-19T06:51:12.910Z,0.54
2022-11-19T06:53:40.613Z,0.60
2022-11-19T06:56:09.204Z,0.50
2022-11-19T06:58:36.955Z,0.46
2022-11-19T07:01:04.783Z,0.42
2022-11-19T07:03:32.303Z,0.57
2022-11-19T07:06:04.620Z,0.33
2022-11-19T07:08:35.622Z,0.24
2022-11-19T07:11:24.343Z,0.16
2022-11-19T07:13:59.015Z,0.17
2022-11-19T07:16:32.431Z,0.31
2022-11-19T07:19:02.086Z,0.36
2022-11-19T07:21:30.699Z,0.37
2022-11-19T07:23:59.096Z,0.35
2022-11-19T07:26:27.257Z,0.43
2022-11-19T07:28:55.217Z,0.15
2022-11-19T07:31:24.555Z,0.17
2022-11-19T07:33:52.066Z,0.11
2022-11-19T07:36:19.845Z,0.15
2022-11-19T07:38:47.412Z,0.16
2022-11-19T07:41:32.661Z,0.26
2022-11-19T07:44:00.108Z,0.12
2022-11-19T07:46:27.623Z,0.20
2022-11-19T07:48:56.698Z,0.27
2022-11-19T07:51:25.320Z,0.17
2022-11-19T07:53:53.564Z,0.19
2022-11-19T07:56:21.471Z,0.30
2022-11-19T07:58:49.064Z,0.26
2022-11-19T08:01:20.250Z,0.16
2022-11-19T08:03:54.888Z,0.15
2022-11-19T08:06:26.260Z,0.05
2022-11-19T08:08:55.818Z,0.15
2022-11-19T08:11:24.393Z,0.08
2022-11-19T08:13:52.493Z,0.09
2022-11-19T08:16:34.698Z,0.10
2022-11-19T08:19:08.197Z,0.17
2022-11-19T08:21:35.790Z,0.25
2022-11-19T08:24:03.972Z,0.15
2022-11-19T08:26:31.565Z,0.07
2022-11-19T08:28:59.139Z,-0.18
2022-11-19T08:31:26.689Z,-0.29
2022-11-19T08:33:54.315Z,-0.13
2022-11-19T08:36:21.784Z,-0.05
2022-11-19T08:38:49.292Z,-0.27
2022-11-19T08:41:34.345Z,-0.26
2022-11-19T08:46:30.171Z,-0.50
2022-11-19T08:48:57.735Z,-0.55
2022-11-19T08:51:25.370Z,-0.50
2022-11-19T08:53:53.993Z,-0.55
2022-11-19T08:56:22.877Z,-0.46
2022-11-19T08:58:50.558Z,-0.64
2022-11-19T09:01:18.845Z,-0.55
2022-11-19T09:03:46.721Z,-0.59
2022-11-19T09:06:14.508Z,-0.69
2022-11-19T09:08:42.850Z,-0.61
2022-11-19T09:11:17.783Z,-0.41
2022-11-19T09:13:45.667Z,-0.40
2022-11-19T09:16:14.235Z,-0.49
2022-11-19T09:18:42.360Z,-0.70
2022-11-19T09:21:12.097Z,-0.45
2022-11-19T09:23:41.474Z,-0.50
2022-11-19T09:26:17.850Z,-0.64
2022-11-19T09:28:46.602Z,-0.59
2022-11-19T09:31:18.159Z,-0.70
2022-11-19T09:33:51.204Z,-0.61
2022-11-19T09:36:19.806Z,-0.48
2022-11-19T09:38:48.797Z,-0.37
2022-11-19T09:41:41.397Z,-0.24
2022-11-19T09:44:29.811Z,-0.45
2022-11-19T09:47:18.941Z,-0.75
2022-11-19T09:49:54.699Z,-0.42
2022-11-19T09:52:26.663Z,-0.46
2022-11-19T09:54:57.741Z,-0.36
2022-11-19T09:57:34.956Z,-0.01
2022-11-19T10:00:03.373Z,-0.02
2022-11-19T10:02:31.018Z,-0.22
2022-11-19T10:04:59.936Z,0.20
2022-11-19T10:07:58.176Z,0.43
2022-11-19T10:10:41.571Z,0.50
2022-11-19T10:13:38.697Z,0.51
2022-11-19T10:16:11.904Z,0.53
2022-11-19T10:18:42.044Z,0.52
2022-11-19T10:21:19.425Z,0.87
2022-11-19T10:23:49.745Z,0.77
2022-11-19T10:26:19.557Z,0.48
2022-11-19T10:28:54.906Z,1.05
2022-11-19T10:31:37.681Z,1.57
2022-11-19T10:34:16.701Z,1.45
2022-11-19T10:37:07.448Z,1.37
2022-11-19T10:39:40.933Z,1.39
2022-11-19T10:42:28.709Z,1.47
2022-11-19T10:45:05.858Z,1.67
2022-11-19T10:47:47.898Z,1.23
2022-11-19T10:50:33.763Z,1.68
2022-11-19T10:53:08.464Z,1.59
2022-11-19T10:55:42.027Z,2.08
2022-11-19T10:58:19.134Z,2.32
2022-11-19T11:00:48.186Z,1.97
2022-11-19T11:03:22.023Z,2.05
2022-11-19T11:06:06.468Z,2.09
2022-11-19T11:08:34.904Z,1.99
2022-11-19T11:11:02.635Z,2.03
2022-11-19T11:13:59.145Z,2.17
2022-11-19T11:16:48.822Z,2.17
2022-11-19T11:19:23.144Z,2.02
2022-11-19T11:21:55.765Z,1.79
2022-11-19T11:24:31.320Z,1.81
2022-11-19T11:27:33.960Z,1.80
2022-11-19T11:30:07.986Z,1.66
2022-11-19T11:32:35.616Z,2.25
2022-11-19T11:35:08.250Z,2.10
2022-11-19T11:37:37.696Z,2.78
2022-11-19T11:40:05.681Z,3.04
2022-11-19T11:42:33.225Z,2.33
2022-11-19T11:45:02.201Z,2.36
2022-11-19T11:47:33.127Z,2.14
2022-11-19T11:50:16.907Z,2.30
2022-11-19T11:52:55.648Z,2.34
2022-11-19T11:55:26.344Z,2.24
2022-11-19T11:57:56.502Z,2.85
2022-11-19T12:00:30.072Z,2.68
2022-11-19T12:03:03.595Z,2.41
2022-11-19T12:05:54.399Z,2.51
2022-11-19T12:08:49.364Z,2.74
2022-11-19T12:11:52.627Z,2.31
2022-11-19T12:14:28.447Z,1.99
2022-11-19T12:17:17.997Z,1.51
2022-11-19T12:19:56.495Z,1.64
2022-11-19T12:22:36.430Z,1.77
2022-11-19T12:25:10.112Z,1.63
2022-11-19T12:28:02.558Z,1.47
2022-11-19T12:31:04.033Z,1.44
2022-11-19T12:33:53.160Z,1.46
2022-11-19T12:36:29.723Z,1.59
2022-11-19T12:39:39.247Z,1.53
2022-11-19T12:42:23.898Z,1.61
2022-11-19T12:45:03.542Z,1.59
2022-11-19T12:48:08.966Z,1.65
2022-11-19T12:50:55.299Z,1.50
2022-11-19T12:53:43.789Z,1.58
2022-11-19T12:56:29.577Z,1.72
2022-11-19T12:59:03.917Z,1.63
2022-11-19T13:01:37.179Z,1.67
2022-11-19T13:04:22.499Z,1.74
2022-11-19T13:07:04.717Z,1.67
2022-11-19T13:09:38.323Z,1.68
2022-11-19T13:12:09.386Z,1.67
2022-11-19T13:14:42.296Z,1.70
2022-11-19T13:17:24.048Z,1.84
2022-11-19T13:19:57.174Z,1.77
2022-11-19T13:22:28.988Z,1.86
2022-11-19T13:25:05.329Z,1.95
2022-11-19T13:27:33.513Z,2.21
2022-11-19T13:30:08.113Z,2.17
2022-11-19T13:33:00.649Z,2.53
2022-11-19T13:35:35.282Z,3.04
2022-11-19T13:38:15.562Z,3.19
2022-11-19T13:40:48.280Z,3.26
2022-11-19T13:43:37.338Z,3.20
2022-11-19T13:46:17.327Z,2.82
2022-11-19T13:49:08.611Z,2.57
2022-11-19T13:51:43.640Z,2.66
2022-11-19T13:54:28.448Z,2.82
2022-11-19T13:56:59.490Z,2.71
2022-11-19T13:59:38.650Z,2.45
2022-11-19T14:02:12.087Z,2.36
2022-11-19T14:04:48.622Z,2.26
2022-11-19T14:07:44.643Z,2.27
2022-11-19T14:10:34.040Z,2.35
2022-11-19T14:13:39.564Z,2.38
2022-11-19T14:16:42.175Z,2.34
2022-11-19T14:19:33.035Z,2.28
2022-11-19T14:22:19.454Z,2.25
2022-11-19T14:25:04.164Z,2.19
2022-11-19T14:27:33.849Z,2.23
2022-11-19T14:30:16.771Z,2.00
2022-11-19T14:32:47.706Z,2.10
2022-11-19T14:35:30.949Z,2.09
2022-11-19T14:38:13.014Z,2.11
2022-11-19T14:40:43.949Z,2.07
2022-11-19T14:43:35.037Z,1.93
2022-11-19T14:46:02.822Z,2.10
2022-11-19T14:48:32.568Z,2.04
2022-11-19T14:51:06.108Z,2.05
2022-11-19T14:53:34.360Z,1.96
2022-11-19T14:56:09.635Z,1.95
2022-11-19T14:58:37.349Z,1.86
2022-11-19T15:01:11.172Z,1.84
2022-11-19T15:03:38.958Z,1.76
2022-11-19T15:06:08.672Z,1.71
2022-11-19T15:08:57.428Z,1.58
2022-11-19T15:11:24.873Z,1.67
2022-11-19T15:14:34.339Z,1.61
2022-11-19T15:17:08.444Z,1.59
2022-11-19T15:20:13.587Z,1.54
2022-11-19T15:22:46.815Z,1.48
2022-11-19T15:25:26.626Z,1.41
2022-11-19T15:28:07.913Z,1.42
2022-11-19T15:30:59.277Z,1.32
2022-11-19T15:33:52.486Z,1.27
2022-11-19T15:36:33.816Z,1.15
2022-11-19T15:39:14.276Z,1.13
2022-11-19T15:42:00.206Z,1.07
2022-11-19T15:44:51.264Z,1.03
2022-11-19T15:47:25.290Z,0.99
2022-11-19T15:49:54.344Z,0.92
2022-11-19T15:52:30.730Z,0.87
2022-11-19T15:55:22.524Z,0.85
2022-11-19T15:57:54.980Z,0.79
2022-11-19T16:00:24.316Z,0.74
2022-11-19T16:02:53.670Z,0.70
2022-11-19T16:05:30.587Z,0.64
2022-11-19T16:07:59.864Z,0.48
2022-11-19T16:10:31.528Z,0.48
2022-11-19T16:13:19.429Z,0.44
2022-11-19T16:16:13.096Z,0.38
2022-11-19T16:18:48.124Z,0.34
2022-11-19T16:21:21.161Z,0.29
2022-11-19T16:24:06.315Z,0.24
2022-11-19T16:26:38.593Z,0.24
2022-11-19T16:29:06.446Z,0.20
2022-11-19T16:31:34.372Z,0.17
2022-11-19T16:34:01.871Z,0.08
2022-11-19T16:36:32.088Z,0.06
2022-11-19T16:38:59.949Z,0.01
2022-11-19T16:41:45.423Z,-0.03
2022-11-19T16:44:21.100Z,-0.09
2022-11-19T16:46:49.248Z,-0.16
2022-11-19T16:49:49.369Z,-0.19
2022-11-19T16:52:35.163Z,-0.24
2022-11-19T16:55:05.021Z,-0.29
2022-11-19T16:57:33.566Z,-0.31
2022-11-19T17:00:06.185Z,-0.34
2022-11-19T17:02:40.647Z,-0.38
2022-11-19T17:05:16.741Z,-0.40
2022-11-19T17:07:48.604Z,-0.41
2022-11-19T17:10:26.157Z,-0.45
2022-11-19T17:12:56.887Z,-0.51
2022-11-19T17:15:42.835Z,-0.54
2022-11-19T17:18:13.366Z,-0.58
2022-11-19T17:20:40.866Z,-0.59
2022-11-19T17:23:34.058Z,-0.66
2022-11-19T17:26:07.692Z,-0.75
2022-11-19T17:28:41.034Z,-0.71
2022-11-19T17:31:21.038Z,-0.76
2022-11-19T17:33:52.018Z,-0.78
2022-11-19T17:36:20.085Z,-0.84
2022-11-19T17:38:47.612Z,-0.85
2022-11-19T17:41:38.176Z,-0.86
2022-11-19T17:44:27.333Z,-0.91
2022-11-19T17:46:54.848Z,-0.97
2022-11-19T17:49:22.488Z,-1.05
2022-11-19T17:51:50.760Z,-1.11
2022-11-19T17:54:18.568Z,-1.15
2022-11-19T17:56:46.237Z,-1.19
2022-11-19T17:59:13.770Z,-1.23
2022-11-19T18:01:41.477Z,-1.26
2022-11-19T18:04:12.569Z,-1.28
2022-11-19T18:06:40.595Z,-1.33
2022-11-19T18:09:08.564Z,-1.34
2022-11-19T18:11:40.189Z,-1.45
2022-11-19T18:14:10.056Z,-1.44
2022-11-19T18:16:41.752Z,-1.48
2022-11-19T18:19:13.525Z,-1.51
2022-11-19T18:21:43.641Z,-1.54
2022-11-19T18:24:12.539Z,-1.55
2022-11-19T18:26:40.109Z,-1.55
2022-11-19T18:29:07.550Z,-1.61
2022-11-19T18:31:39.256Z,-1.64
2022-11-19T18:34:06.911Z,-1.66
2022-11-19T18:36:34.647Z,-1.71
2022-11-19T18:39:02.170Z,-1.72
2022-11-19T18:41:30.280Z,-1.76
2022-11-19T18:44:15.441Z,-1.80
2022-11-19T18:46:42.943Z,-1.81
2022-11-19T18:49:11.745Z,-1.85
2022-11-19T18:51:39.604Z,-1.84
2022-11-19T18:54:07.096Z,-1.87
2022-11-19T18:56:34.818Z,-1.89
2022-11-19T18:59:04.916Z,-1.90
2022-11-19T19:01:33.129Z,-1.91
2022-11-19T19:04:00.739Z,-1.93
2022-11-19T19:06:30.046Z,-1.98
2022-11-19T19:08:57.565Z,-1.94
2022-11-19T19:11:42.363Z,-2.00
2022-11-19T19:14:09.843Z,-1.97
2022-11-19T19:16:37.299Z,-1.98
2022-11-19T19:19:05.119Z,-1.99
2022-11-19T19:21:32.986Z,-2.00
2022-11-19T19:24:01.256Z,-2.04
2022-11-19T19:26:29.534Z,-2.05
2022-11-19T19:28:57.708Z,-2.15
2022-11-19T19:31:26.092Z,-2.06
2022-11-19T19:33:55.514Z,-2.08
2022-11-19T19:36:24.898Z,-2.10
2022-11-19T19:38:53.076Z,-2.07
2022-11-19T19:41:28.823Z,-2.12
2022-11-19T19:43:58.743Z,-2.13
2022-11-19T19:46:28.766Z,-2.13
2022-11-19T19:48:58.374Z,-2.13
2022-11-19T19:51:29.510Z,-2.12
2022-11-19T19:53:57.994Z,-2.09
2022-11-19T19:56:29.345Z,-2.12
2022-11-19T19:59:01.858Z,-2.10
2022-11-19T20:01:33.261Z,-2.12
2022-11-19T20:04:11.997Z,-2.12
2022-11-19T20:06:44.980Z,-2.15
2022-11-19T20:09:12.957Z,-2.18
2022-11-19T20:11:40.923Z,-2.18
2022-11-19T20:14:08.894Z,-2.20
2022-11-19T20:16:42.905Z,-2.22
2022-11-19T20:19:15.304Z,-2.19
2022-11-19T20:22:02.026Z,-2.23
2022-11-19T20:24:32.839Z,-2.23
2022-11-19T20:27:02.331Z,-2.21
2022-11-19T20:29:31.529Z,-2.18
2022-11-19T20:31:59.528Z,-2.23
2022-11-19T20:34:27.470Z,-2.28
2022-11-19T20:36:57.590Z,-2.29
2022-11-19T20:39:26.506Z,-2.30
2022-11-19T20:42:14.520Z,-2.33
2022-11-19T20:44:43.318Z,-2.40
2022-11-19T20:47:11.197Z,-2.41
2022-11-19T20:49:40.076Z,-2.45
2022-11-19T20:52:13.876Z,-2.58
2022-11-19T20:54:42.972Z,-2.47
2022-11-19T20:57:15.899Z,-2.53
2022-11-19T20:59:43.840Z,-2.52
2022-11-19T21:02:14.522Z,-2.52
2022-11-19T21:04:45.308Z,-2.57
2022-11-19T21:07:13.551Z,-2.60
2022-11-19T21:09:42.374Z,-2.59
2022-11-19T21:12:10.338Z,-2.60
2022-11-19T21:14:38.410Z,-2.62
2022-11-19T21:17:06.282Z,-2.66
2022-11-19T21:19:34.150Z,-2.72
2022-11-19T21:22:02.024Z,-2.65
2022-11-19T21:24:30.510Z,-2.65
2022-11-19T21:26:58.670Z,-2.65
2022-11-19T21:29:26.641Z,-2.64
2022-11-19T21:31:55.631Z,-2.74
2022-11-19T21:34:23.272Z,-2.77
2022-11-19T21:36:50.935Z,-2.78
2022-11-19T21:39:20.088Z,-2.78
2022-11-19T21:41:48.047Z,-2.85
2022-11-19T21:44:21.122Z,-2.80
2022-11-19T21:46:49.260Z,-2.81
2022-11-19T21:49:16.966Z,-2.86
2022-11-19T21:51:45.552Z,-2.93
2022-11-19T21:54:36.000Z,-2.95
2022-11-19T21:57:13.931Z,-2.96
2022-11-19T22:00:46.298Z,-2.99
2022-11-19T22:06:46.628Z,-3.01
2022-11-19T22:09:19.296Z,-3.06
2022-11-19T22:11:56.439Z,-3.00
2022-11-19T22:14:24.049Z,-2.98
2022-11-19T22:16:54.454Z,-2.97
2022-11-19T22:19:22.580Z,-3.04
2022-11-19T22:21:50.478Z,-3.02
2022-11-19T22:24:18.112Z,-3.04
2022-11-19T22:26:45.624Z,-3.04
2022-11-19T22:29:13.162Z,-3.10
2022-11-19T22:31:40.705Z,-3.07
2022-11-19T22:34:08.233Z,-3.08
2022-11-19T22:36:35.746Z,-3.11
2022-11-19T22:39:03.275Z,-3.15
2022-11-19T22:41:31.126Z,-3.09
2022-11-19T22:43:59.374Z,-3.12
2022-11-19T22:46:26.944Z,-3.19
2022-11-19T22:48:58.914Z,-3.17
2022-11-19T22:51:26.812Z,-3.22
2022-11-19T22:53:55.358Z,-3.28
2022-11-19T22:56:28.306Z,-3.37
2022-11-19T22:58:56.671Z,-3.36
2022-11-19T23:01:27.559Z,-3.36
2022-11-19T23:03:56.217Z,-3.38
2022-11-19T23:06:24.800Z,-3.37
2022-11-19T23:08:53.098Z,-3.39
2022-11-19T23:11:43.248Z,-3.44
2022-11-19T23:14:12.701Z,-3.45
2022-11-19T23:16:40.551Z,-3.49
2022-11-19T23:19:08.983Z,-3.49
2022-11-19T23:21:36.832Z,-3.53
2022-11-19T23:24:05.041Z,-3.51
2022-11-19T23:26:34.190Z,-3.50
2022-11-19T23:29:01.858Z,-3.51
2022-11-19T23:31:32.651Z,-3.53
2022-11-19T23:34:00.463Z,-3.57
2022-11-19T23:36:33.225Z,-3.56
2022-11-19T23:39:01.003Z,-3.61
2022-11-19T23:41:28.970Z,-3.71
2022-11-19T23:43:57.405Z,-3.73
2022-11-19T23:46:30.771Z,-3.75
2022-11-19T23:48:59.785Z,-3.80
2022-11-19T23:51:33.256Z,-3.79
2022-11-19T23:54:02.408Z,-3.78
2022-11-19T23:56:32.157Z,-3.79
2022-11-19T23:59:01.895Z,-3.81
